sensor_id;sensor_type;location;lat;lon;timestamp;P1;durP1;ratioP1;P2;durP2;ratioP2
16304;SDS011;8261;47.678;-122.174;2022-11-20T00:02:29;5.60;;;2.53;;
16304;SDS011;8261;47.678;-122.174;2022-11-20T00:05:00;5.47;;;2.70;;
16304;SDS011;8261;47.678;-122.174;2022-11-20T00:07:32;5.40;;;2.73;;
16304;SDS011;8261;47.678;-122.174;2022-11-20T00:10:03;5.73;;;3.27;;
16304;SDS011;8261;47.678;-122.174;2022-11-20T00:12:35;4.63;;;3.13;;
16304;SDS011;8261;47.678;-122.174;2022-11-20T00:15:06;5.40;;;3.20;;
16304;SDS011;8261;47.678;-122.174;2022-11-20T00:17:37;3.47;;;2.80;;
16304;SDS011;8261;47.678;-122.174;2022-11-20T00:20:08;6.07;;;3.23;;
16304;SDS011;8261;47.678;-122.174;2022-11-20T00:22:42;3.70;;;2.67;;
16304;SDS011;8261;47.678;-122.174;2022-11-20T00:25:13;4.93;;;2.90;;
16304;SDS011;8261;47.678;-122.174;2022-11-20T00:27:43;4.70;;;2.80;;
16304;SDS011;8261;47.678;-122.174;2022-11-20T00:30:14;4.93;;;3.00;;
16304;SDS011;8261;47.678;-122.174;2022-11-20T00:32:45;3.70;;;2.90;;
16304;SDS011;8261;47.678;-122.174;2022-11-20T00:35:15;5.97;;;3.00;;
16304;SDS011;8261;47.678;-122.174;2022-11-20T00:37:49;3.93;;;2.73;;
16304;SDS011;8261;47.678;-122.174;2022-11-20T00:40:19;4.67;;;3.13;;
16304;SDS011;8261;47.678;-122.174;2022-11-20T00:42:50;4.77;;;2.90;;
16304;SDS011;8261;47.678;-122.174;2022-11-20T00:45:20;3.73;;;3.00;;
16304;SDS011;8261;47.678;-122.174;2022-11-20T00:47:51;4.90;;;3.20;;
16304;SDS011;8261;47.678;-122.174;2022-11-20T00:50:22;6.13;;;3.23;;
16304;SDS011;8261;47.678;-122.174;2022-11-20T00:52:54;6.80;;;2.90;;
16304;SDS011;8261;47.678;-122.174;2022-11-20T00:55:25;5.07;;;3.17;;
16304;SDS011;8261;47.678;-122.174;2022-11-20T00:57:56;5.37;;;3.30;;
16304;SDS011;8261;47.678;-122.174;2022-11-20T01:00:30;5.93;;;3.50;;
16304;SDS011;8261;47.678;-122.174;2022-11-20T01:03:01;6.43;;;3.20;;
16304;SDS011;8261;47.678;-122.174;2022-11-20T01:05:34;4.93;;;3.53;;
16304;SDS011;8261;47.678;-122.174;2022-11-20T01:08:06;7.53;;;3.83;;
16304;SDS011;8261;47.678;-122.174;2022-11-20T01:10:37;6.73;;;3.83;;
16304;SDS011;8261;47.678;-122.174;2022-11-20T01:13:08;7.10;;;4.03;;
16304;SDS011;8261;47.678;-122.174;2022-11-20T01:16:01;6.23;;;4.00;;
16304;SDS011;8261;47.678;-122.174;2022-11-20T01:18:33;8.17;;;3.50;;
16304;SDS011;8261;47.678;-122.174;2022-11-20T01:21:04;4.70;;;2.80;;
16304;SDS011;8261;47.678;-122.174;2022-11-20T01:23:38;6.13;;;3.80;;
16304;SDS011;8261;47.678;-122.174;2022-11-20T01:26:10;5.90;;;3.37;;
16304;SDS011;8261;47.678;-122.174;2022-11-20T01:28:42;7.93;;;4.10;;
16304;SDS011;8261;47.678;-122.174;2022-11-20T01:31:14;10.07;;;5.20;;
16304;SDS011;8261;47.678;-122.174;2022-11-20T01:33:47;10.47;;;6.20;;
16304;SDS011;8261;47.678;-122.174;2022-11-20T01:36:19;9.60;;;6.57;;
16304;SDS011;8261;47.678;-122.174;2022-11-20T01:38:54;12.77;;;7.30;;
16304;SDS011;8261;47.678;-122.174;2022-11-20T01:41:26;15.47;;;8.43;;
16304;SDS011;8261;47.678;-122.174;2022-11-20T01:44:12;25.43;;;14.40;;
16304;SDS011;8261;47.678;-122.174;2022-11-20T01:46:48;24.87;;;15.73;;
16304;SDS011;8261;47.678;-122.174;2022-11-20T01:49:24;20.00;;;12.73;;
16304;SDS011;8261;47.678;-122.174;2022-11-20T01:52:03;15.30;;;9.93;;
16304;SDS011;8261;47.678;-122.174;2022-11-20T01:54:43;14.00;;;8.67;;
16304;SDS011;8261;47.678;-122.174;2022-11-20T01:57:19;10.40;;;6.77;;
16304;SDS011;8261;47.678;-122.174;2022-11-20T01:59:52;9.90;;;5.90;;
16304;SDS011;8261;47.678;-122.174;2022-11-20T02:02:27;8.87;;;4.77;;
16304;SDS011;8261;47.678;-122.174;2022-11-20T02:05:00;9.87;;;7.93;;
16304;SDS011;8261;47.678;-122.174;2022-11-20T02:07:42;7.33;;;5.27;;
16304;SDS011;8261;47.678;-122.174;2022-11-20T02:10:16;7.50;;;5.63;;
16304;SDS011;8261;47.678;-122.174;2022-11-20T02:12:48;8.40;;;5.77;;
16304;SDS011;8261;47.678;-122.174;2022-11-20T02:15:36;7.70;;;5.50;;
16304;SDS011;8261;47.678;-122.174;2022-11-20T02:18:08;9.40;;;6.47;;
16304;SDS011;8261;47.678;-122.174;2022-11-20T02:20:40;10.57;;;6.40;;
16304;SDS011;8261;47.678;-122.174;2022-11-20T02:23:16;12.60;;;7.53;;
16304;SDS011;8261;47.678;-122.174;2022-11-20T02:25:56;12.77;;;7.90;;
16304;SDS011;8261;47.678;-122.174;2022-11-20T02:28:30;11.13;;;6.30;;
16304;SDS011;8261;47.678;-122.174;2022-11-20T02:31:03;11.50;;;6.57;;
16304;SDS011;8261;47.678;-122.174;2022-11-20T02:33:35;8.97;;;6.00;;
16304;SDS011;8261;47.678;-122.174;2022-11-20T02:36:07;9.83;;;5.80;;
16304;SDS011;8261;47.678;-122.174;2022-11-20T02:38:41;7.03;;;4.97;;
16304;SDS011;8261;47.678;-122.174;2022-11-20T02:41:14;8.67;;;5.43;;
16304;SDS011;8261;47.678;-122.174;2022-11-20T02:43:46;7.17;;;4.70;;
16304;SDS011;8261;47.678;-122.174;2022-11-20T02:46:16;8.40;;;5.17;;
16304;SDS011;8261;47.678;-122.174;2022-11-20T02:48:47;9.33;;;4.87;;
16304;SDS011;8261;47.678;-122.174;2022-11-20T02:51:19;10.07;;;5.23;;
16304;SDS011;8261;47.678;-122.174;2022-11-20T02:53:51;8.87;;;5.63;;
16304;SDS011;8261;47.678;-122.174;2022-11-20T02:56:24;8.30;;;6.00;;
16304;SDS011;8261;47.678;-122.174;2022-11-20T02:58:56;10.57;;;5.60;;
16304;SDS011;8261;47.678;-122.174;2022-11-20T03:01:27;8.67;;;5.20;;
16304;SDS011;8261;47.678;-122.174;2022-11-20T03:03:58;12.53;;;5.50;;
16304;SDS011;8261;47.678;-122.174;2022-11-20T03:06:29;8.27;;;4.47;;
16304;SDS011;8261;47.678;-122.174;2022-11-20T03:09:00;9.40;;;5.10;;
16304;SDS011;8261;47.678;-122.174;2022-11-20T03:11:32;10.33;;;5.30;;
16304;SDS011;8261;47.678;-122.174;2022-11-20T03:14:04;8.10;;;6.17;;
16304;SDS011;8261;47.678;-122.174;2022-11-20T03:19:06;8.77;;;5.20;;
16304;SDS011;8261;47.678;-122.174;2022-11-20T03:21:37;8.87;;;5.20;;
16304;SDS011;8261;47.678;-122.174;2022-11-20T03:24:08;7.33;;;4.37;;
16304;SDS011;8261;47.678;-122.174;2022-11-20T03:26:41;6.53;;;4.23;;
16304;SDS011;8261;47.678;-122.174;2022-11-20T03:29:12;8.00;;;5.10;;
16304;SDS011;8261;47.678;-122.174;2022-11-20T03:31:44;12.40;;;6.10;;
16304;SDS011;8261;47.678;-122.174;2022-11-20T03:34:15;9.83;;;5.93;;
16304;SDS011;8261;47.678;-122.174;2022-11-20T03:36:47;10.33;;;6.40;;
16304;SDS011;8261;47.678;-122.174;2022-11-20T03:39:19;12.17;;;7.27;;
16304;SDS011;8261;47.678;-122.174;2022-11-20T03:41:51;10.70;;;6.97;;
16304;SDS011;8261;47.678;-122.174;2022-11-20T03:44:23;10.23;;;7.00;;
16304;SDS011;8261;47.678;-122.174;2022-11-20T03:46:54;10.17;;;7.00;;
16304;SDS011;8261;47.678;-122.174;2022-11-20T03:49:25;10.53;;;6.73;;
16304;SDS011;8261;47.678;-122.174;2022-11-20T03:51:56;10.13;;;6.87;;
16304;SDS011;8261;47.678;-122.174;2022-11-20T03:54:28;10.47;;;6.50;;
16304;SDS011;8261;47.678;-122.174;2022-11-20T03:57:02;8.20;;;5.73;;
16304;SDS011;8261;47.678;-122.174;2022-11-20T03:59:33;8.67;;;6.27;;
16304;SDS011;8261;47.678;-122.174;2022-11-20T04:02:04;13.47;;;7.77;;
16304;SDS011;8261;47.678;-122.174;2022-11-20T04:04:35;11.97;;;7.87;;
16304;SDS011;8261;47.678;-122.174;2022-11-20T04:07:07;10.47;;;7.17;;
16304;SDS011;8261;47.678;-122.174;2022-11-20T04:09:39;11.57;;;6.93;;
16304;SDS011;8261;47.678;-122.174;2022-11-20T04:12:12;13.77;;;7.50;;
16304;SDS011;8261;47.678;-122.174;2022-11-20T04:14:43;11.40;;;8.03;;
16304;SDS011;8261;47.678;-122.174;2022-11-20T04:17:15;14.13;;;8.57;;
16304;SDS011;8261;47.678;-122.174;2022-11-20T04:19:46;11.57;;;7.83;;
16304;SDS011;8261;47.678;-122.174;2022-11-20T04:22:17;14.87;;;9.57;;
16304;SDS011;8261;47.678;-122.174;2022-11-20T04:24:49;15.37;;;11.33;;
16304;SDS011;8261;47.678;-122.174;2022-11-20T04:27:21;14.83;;;9.57;;
16304;SDS011;8261;47.678;-122.174;2022-11-20T04:29:53;12.10;;;8.50;;
16304;SDS011;8261;47.678;-122.174;2022-11-20T04:32:24;12.50;;;7.23;;
16304;SDS011;8261;47.678;-122.174;2022-11-20T04:34:55;11.10;;;7.43;;
16304;SDS011;8261;47.678;-122.174;2022-11-20T04:37:27;18.73;;;10.17;;
16304;SDS011;8261;47.678;-122.174;2022-11-20T04:39:58;27.07;;;14.87;;
16304;SDS011;8261;47.678;-122.174;2022-11-20T04:42:31;42.77;;;22.17;;
16304;SDS011;8261;47.678;-122.174;2022-11-20T04:45:03;47.87;;;25.13;;
16304;SDS011;8261;47.678;-122.174;2022-11-20T04:47:35;36.07;;;21.13;;
16304;SDS011;8261;47.678;-122.174;2022-11-20T04:50:06;32.80;;;16.63;;
16304;SDS011;8261;47.678;-122.174;2022-11-20T04:52:38;21.07;;;10.27;;
16304;SDS011;8261;47.678;-122.174;2022-11-20T04:55:09;17.10;;;9.47;;
16304;SDS011;8261;47.678;-122.174;2022-11-20T04:57:43;18.17;;;11.10;;
16304;SDS011;8261;47.678;-122.174;2022-11-20T05:00:15;21.83;;;13.73;;
16304;SDS011;8261;47.678;-122.174;2022-11-20T05:02:47;21.97;;;14.77;;
16304;SDS011;8261;47.678;-122.174;2022-11-20T05:05:19;23.70;;;14.20;;
16304;SDS011;8261;47.678;-122.174;2022-11-20T05:07:50;16.20;;;10.93;;
16304;SDS011;8261;47.678;-122.174;2022-11-20T05:10:22;15.13;;;9.50;;
16304;SDS011;8261;47.678;-122.174;2022-11-20T05:12:57;12.90;;;8.20;;
16304;SDS011;8261;47.678;-122.174;2022-11-20T05:15:28;12.53;;;8.37;;
16304;SDS011;8261;47.678;-122.174;2022-11-20T05:18:00;13.30;;;9.90;;
16304;SDS011;8261;47.678;-122.174;2022-11-20T05:20:32;13.60;;;8.60;;
16304;SDS011;8261;47.678;-122.174;2022-11-20T05:23:03;15.70;;;8.87;;
16304;SDS011;8261;47.678;-122.174;2022-11-20T05:25:36;17.33;;;9.90;;
16304;SDS011;8261;47.678;-122.174;2022-11-20T05:28:09;12.13;;;8.07;;
16304;SDS011;8261;47.678;-122.174;2022-11-20T05:30:41;15.13;;;8.67;;
16304;SDS011;8261;47.678;-122.174;2022-11-20T05:33:12;16.20;;;9.33;;
16304;SDS011;8261;47.678;-122.174;2022-11-20T05:35:43;17.30;;;10.30;;
16304;SDS011;8261;47.678;-122.174;2022-11-20T05:38:16;15.07;;;9.70;;
16304;SDS011;8261;47.678;-122.174;2022-11-20T05:40:47;15.90;;;9.93;;
16304;SDS011;8261;47.678;-122.174;2022-11-20T05:43:20;15.30;;;8.93;;
16304;SDS011;8261;47.678;-122.174;2022-11-20T05:45:52;13.57;;;8.10;;
16304;SDS011;8261;47.678;-122.174;2022-11-20T05:48:23;10.73;;;7.63;;
16304;SDS011;8261;47.678;-122.174;2022-11-20T05:50:56;10.87;;;7.27;;
16304;SDS011;8261;47.678;-122.174;2022-11-20T05:53:28;9.53;;;6.20;;
16304;SDS011;8261;47.678;-122.174;2022-11-20T05:56:00;10.63;;;6.40;;
16304;SDS011;8261;47.678;-122.174;2022-11-20T05:58:34;8.63;;;5.37;;
16304;SDS011;8261;47.678;-122.174;2022-11-20T06:01:06;8.17;;;5.50;;
16304;SDS011;8261;47.678;-122.174;2022-11-20T06:03:40;9.17;;;5.20;;
16304;SDS011;8261;47.678;-122.174;2022-11-20T06:06:13;8.63;;;5.33;;
16304;SDS011;8261;47.678;-122.174;2022-11-20T06:08:45;11.03;;;5.70;;
16304;SDS011;8261;47.678;-122.174;2022-11-20T06:11:17;9.90;;;5.37;;
16304;SDS011;8261;47.678;-122.174;2022-11-20T06:13:51;9.30;;;5.53;;
16304;SDS011;8261;47.678;-122.174;2022-11-20T06:16:23;11.90;;;6.20;;
16304;SDS011;8261;47.678;-122.174;2022-11-20T06:18:53;10.43;;;6.27;;
16304;SDS011;8261;47.678;-122.174;2022-11-20T06:21:24;13.47;;;7.57;;
16304;SDS011;8261;47.678;-122.174;2022-11-20T06:23:57;14.27;;;8.13;;
16304;SDS011;8261;47.678;-122.174;2022-11-20T06:26:28;13.00;;;8.60;;
16304;SDS011;8261;47.678;-122.174;2022-11-20T06:29:02;15.70;;;9.43;;
16304;SDS011;8261;47.678;-122.174;2022-11-20T06:31:33;15.03;;;9.20;;
16304;SDS011;8261;47.678;-122.174;2022-11-20T06:34:06;15.03;;;10.03;;
16304;SDS011;8261;47.678;-122.174;2022-11-20T06:36:37;14.43;;;9.43;;
16304;SDS011;8261;47.678;-122.174;2022-11-20T06:39:09;18.27;;;10.10;;
16304;SDS011;8261;47.678;-122.174;2022-11-20T06:41:40;15.10;;;10.70;;
16304;SDS011;8261;47.678;-122.174;2022-11-20T06:44:14;15.33;;;10.23;;
16304;SDS011;8261;47.678;-122.174;2022-11-20T06:46:46;16.37;;;10.77;;
16304;SDS011;8261;47.678;-122.174;2022-11-20T06:49:18;13.23;;;9.47;;
16304;SDS011;8261;47.678;-122.174;2022-11-20T06:51:50;16.27;;;9.30;;
16304;SDS011;8261;47.678;-122.174;2022-11-20T06:54:21;17.20;;;10.50;;
16304;SDS011;8261;47.678;-122.174;2022-11-20T06:56:52;14.37;;;8.67;;
16304;SDS011;8261;47.678;-122.174;2022-11-20T06:59:25;13.00;;;7.63;;
16304;SDS011;8261;47.678;-122.174;2022-11-20T07:01:57;12.83;;;7.90;;
16304;SDS011;8261;47.678;-122.174;2022-11-20T07:04:29;12.43;;;8.00;;
16304;SDS011;8261;47.678;-122.174;2022-11-20T07:07:01;11.97;;;7.37;;
16304;SDS011;8261;47.678;-122.174;2022-11-20T07:09:32;8.30;;;6.13;;
16304;SDS011;8261;47.678;-122.174;2022-11-20T07:12:04;10.87;;;6.73;;
16304;SDS011;8261;47.678;-122.174;2022-11-20T07:14:37;10.63;;;7.07;;
16304;SDS011;8261;47.678;-122.174;2022-11-20T07:17:09;12.23;;;7.20;;
16304;SDS011;8261;47.678;-122.174;2022-11-20T07:19:40;10.73;;;7.07;;
16304;SDS011;8261;47.678;-122.174;2022-11-20T07:22:11;12.37;;;6.97;;
16304;SDS011;8261;47.678;-122.174;2022-11-20T07:24:42;8.27;;;6.30;;
16304;SDS011;8261;47.678;-122.174;2022-11-20T07:27:14;11.10;;;6.67;;
16304;SDS011;8261;47.678;-122.174;2022-11-20T07:29:46;9.07;;;6.53;;
16304;SDS011;8261;47.678;-122.174;2022-11-20T07:32:17;10.90;;;6.90;;
16304;SDS011;8261;47.678;-122.174;2022-11-20T07:34:49;10.43;;;5.97;;
16304;SDS011;8261;47.678;-122.174;2022-11-20T07:37:19;10.47;;;6.30;;
16304;SDS011;8261;47.678;-122.174;2022-11-20T07:39:51;8.73;;;5.70;;
16304;SDS011;8261;47.678;-122.174;2022-11-20T07:42:22;8.60;;;5.57;;
16304;SDS011;8261;47.678;-122.174;2022-11-20T07:44:56;10.90;;;7.50;;
16304;SDS011;8261;47.678;-122.174;2022-11-20T07:47:28;12.23;;;9.70;;
16304;SDS011;8261;47.678;-122.174;2022-11-20T07:50:05;11.33;;;8.20;;
16304;SDS011;8261;47.678;-122.174;2022-11-20T07:52:37;10.87;;;7.63;;
16304;SDS011;8261;47.678;-122.174;2022-11-20T07:55:09;9.63;;;6.60;;
16304;SDS011;8261;47.678;-122.174;2022-11-20T07:57:41;11.13;;;6.07;;
16304;SDS011;8261;47.678;-122.174;2022-11-20T08:02:48;7.97;;;5.93;;
16304;SDS011;8261;47.678;-122.174;2022-11-20T08:05:20;8.47;;;5.40;;
16304;SDS011;8261;47.678;-122.174;2022-11-20T08:07:51;9.13;;;5.43;;
16304;SDS011;8261;47.678;-122.174;2022-11-20T08:10:23;7.67;;;5.67;;
16304;SDS011;8261;47.678;-122.174;2022-11-20T08:12:54;7.93;;;5.57;;
16304;SDS011;8261;47.678;-122.174;2022-11-20T08:15:40;7.37;;;5.70;;
16304;SDS011;8261;47.678;-122.174;2022-11-20T08:18:17;8.80;;;6.40;;
16304;SDS011;8261;47.678;-122.174;2022-11-20T08:20:58;9.43;;;5.97;;
16304;SDS011;8261;47.678;-122.174;2022-11-20T08:23:32;11.17;;;7.90;;
16304;SDS011;8261;47.678;-122.174;2022-11-20T08:26:04;11.20;;;7.70;;
16304;SDS011;8261;47.678;-122.174;2022-11-20T08:28:36;9.67;;;6.57;;
16304;SDS011;8261;47.678;-122.174;2022-11-20T08:31:09;10.17;;;6.87;;
16304;SDS011;8261;47.678;-122.174;2022-11-20T08:33:40;9.80;;;6.17;;
16304;SDS011;8261;47.678;-122.174;2022-11-20T08:36:12;7.57;;;5.33;;
16304;SDS011;8261;47.678;-122.174;2022-11-20T08:38:46;9.37;;;5.83;;
16304;SDS011;8261;47.678;-122.174;2022-11-20T08:41:18;8.93;;;5.37;;
16304;SDS011;8261;47.678;-122.174;2022-11-20T08:43:59;9.37;;;5.37;;
16304;SDS011;8261;47.678;-122.174;2022-11-20T08:46:34;7.37;;;5.17;;
16304;SDS011;8261;47.678;-122.174;2022-11-20T08:49:08;10.53;;;6.13;;
16304;SDS011;8261;47.678;-122.174;2022-11-20T08:51:41;10.23;;;6.47;;
16304;SDS011;8261;47.678;-122.174;2022-11-20T08:54:12;9.23;;;5.97;;
16304;SDS011;8261;47.678;-122.174;2022-11-20T08:56:47;9.77;;;6.50;;
16304;SDS011;8261;47.678;-122.174;2022-11-20T08:59:19;8.30;;;6.10;;
16304;SDS011;8261;47.678;-122.174;2022-11-20T09:02:13;10.30;;;5.77;;
16304;SDS011;8261;47.678;-122.174;2022-11-20T09:04:45;6.90;;;4.90;;
16304;SDS011;8261;47.678;-122.174;2022-11-20T09:07:16;8.83;;;5.40;;
16304;SDS011;8261;47.678;-122.174;2022-11-20T09:09:47;7.13;;;5.10;;
16304;SDS011;8261;47.678;-122.174;2022-11-20T09:12:38;7.03;;;4.43;;
16304;SDS011;8261;47.678;-122.174;2022-11-20T09:15:09;7.73;;;4.90;;
16304;SDS011;8261;47.678;-122.174;2022-11-20T09:17:44;8.83;;;5.23;;
16304;SDS011;8261;47.678;-122.174;2022-11-20T09:20:21;8.00;;;5.30;;
16304;SDS011;8261;47.678;-122.174;2022-11-20T09:22:52;9.00;;;5.20;;
16304;SDS011;8261;47.678;-122.174;2022-11-20T09:25:23;10.30;;;5.13;;
16304;SDS011;8261;47.678;-122.174;2022-11-20T09:27:55;8.47;;;5.33;;
16304;SDS011;8261;47.678;-122.174;2022-11-20T09:30:26;8.30;;;5.30;;
16304;SDS011;8261;47.678;-122.174;2022-11-20T09:33:01;9.03;;;5.90;;
16304;SDS011;8261;47.678;-122.174;2022-11-20T09:35:35;10.37;;;6.37;;
16304;SDS011;8261;47.678;-122.174;2022-11-20T09:38:06;9.23;;;5.33;;
16304;SDS011;8261;47.678;-122.174;2022-11-20T09:40:39;8.87;;;5.10;;
16304;SDS011;8261;47.678;-122.174;2022-11-20T09:43:17;9.13;;;5.30;;
16304;SDS011;8261;47.678;-122.174;2022-11-20T09:46:00;7.00;;;5.10;;
16304;SDS011;8261;47.678;-122.174;2022-11-20T09:48:48;9.17;;;5.30;;
16304;SDS011;8261;47.678;-122.174;2022-11-20T09:51:36;9.40;;;5.73;;
16304;SDS011;8261;47.678;-122.174;2022-11-20T09:54:16;7.67;;;5.23;;
16304;SDS011;8261;47.678;-122.174;2022-11-20T09:56:50;7.10;;;4.70;;
16304;SDS011;8261;47.678;-122.174;2022-11-20T09:59:27;7.80;;;5.07;;
16304;SDS011;8261;47.678;-122.174;2022-11-20T10:02:14;7.63;;;5.20;;
16304;SDS011;8261;47.678;-122.174;2022-11-20T10:04:51;9.23;;;5.30;;
16304;SDS011;8261;47.678;-122.174;2022-11-20T10:07:29;8.07;;;4.97;;
16304;SDS011;8261;47.678;-122.174;2022-11-20T10:10:03;7.30;;;5.23;;
16304;SDS011;8261;47.678;-122.174;2022-11-20T10:12:37;7.67;;;5.33;;
16304;SDS011;8261;47.678;-122.174;2022-11-20T10:15:28;9.20;;;5.00;;
16304;SDS011;8261;47.678;-122.174;2022-11-20T10:18:10;8.47;;;5.00;;
16304;SDS011;8261;47.678;-122.174;2022-11-20T10:20:53;7.50;;;4.73;;
16304;SDS011;8261;47.678;-122.174;2022-11-20T10:26:40;6.67;;;4.50;;
16304;SDS011;8261;47.678;-122.174;2022-11-20T10:29:21;6.87;;;4.87;;
16304;SDS011;8261;47.678;-122.174;2022-11-20T10:32:00;8.80;;;4.97;;
16304;SDS011;8261;47.678;-122.174;2022-11-20T10:34:33;7.50;;;4.40;;
16304;SDS011;8261;47.678;-122.174;2022-11-20T10:37:16;9.40;;;4.47;;
16304;SDS011;8261;47.678;-122.174;2022-11-20T10:39:53;7.93;;;4.20;;
16304;SDS011;8261;47.678;-122.174;2022-11-20T10:42:30;6.60;;;4.40;;
16304;SDS011;8261;47.678;-122.174;2022-11-20T10:45:10;8.23;;;4.73;;
16304;SDS011;8261;47.678;-122.174;2022-11-20T10:47:48;7.53;;;4.70;;
16304;SDS011;8261;47.678;-122.174;2022-11-20T10:50:21;5.57;;;4.50;;
16304;SDS011;8261;47.678;-122.174;2022-11-20T10:52:55;6.40;;;4.67;;
16304;SDS011;8261;47.678;-122.174;2022-11-20T10:55:39;7.07;;;4.43;;
16304;SDS011;8261;47.678;-122.174;2022-11-20T10:58:17;6.73;;;4.43;;
16304;SDS011;8261;47.678;-122.174;2022-11-20T11:01:02;6.43;;;4.50;;
16304;SDS011;8261;47.678;-122.174;2022-11-20T11:03:34;5.37;;;3.73;;
16304;SDS011;8261;47.678;-122.174;2022-11-20T11:06:07;6.63;;;4.20;;
16304;SDS011;8261;47.678;-122.174;2022-11-20T11:08:45;6.90;;;4.37;;
16304;SDS011;8261;47.678;-122.174;2022-11-20T11:11:21;5.97;;;4.10;;
16304;SDS011;8261;47.678;-122.174;2022-11-20T11:13:53;7.30;;;4.17;;
16304;SDS011;8261;47.678;-122.174;2022-11-20T11:16:35;8.23;;;4.80;;
16304;SDS011;8261;47.678;-122.174;2022-11-20T11:19:19;7.60;;;4.67;;
16304;SDS011;8261;47.678;-122.174;2022-11-20T11:21:51;6.93;;;3.90;;
16304;SDS011;8261;47.678;-122.174;2022-11-20T11:24:26;6.97;;;4.20;;
16304;SDS011;8261;47.678;-122.174;2022-11-20T11:27:11;7.73;;;4.87;;
16304;SDS011;8261;47.678;-122.174;2022-11-20T11:29:45;6.67;;;4.47;;
16304;SDS011;8261;47.678;-122.174;2022-11-20T11:32:17;6.73;;;4.57;;
16304;SDS011;8261;47.678;-122.174;2022-11-20T11:34:59;5.77;;;4.17;;
16304;SDS011;8261;47.678;-122.174;2022-11-20T11:37:32;7.20;;;4.53;;
16304;SDS011;8261;47.678;-122.174;2022-11-20T11:40:08;7.93;;;4.70;;
16304;SDS011;8261;47.678;-122.174;2022-11-20T11:42:57;8.23;;;4.63;;
16304;SDS011;8261;47.678;-122.174;2022-11-20T11:45:30;8.67;;;4.70;;
16304;SDS011;8261;47.678;-122.174;2022-11-20T11:48:00;7.50;;;4.53;;
16304;SDS011;8261;47.678;-122.174;2022-11-20T11:50:38;7.40;;;4.67;;
16304;SDS011;8261;47.678;-122.174;2022-11-20T11:53:19;9.77;;;4.93;;
16304;SDS011;8261;47.678;-122.174;2022-11-20T11:55:57;8.60;;;5.03;;
16304;SDS011;8261;47.678;-122.174;2022-11-20T11:58:34;8.33;;;5.07;;
16304;SDS011;8261;47.678;-122.174;2022-11-20T12:01:18;8.40;;;4.77;;
16304;SDS011;8261;47.678;-122.174;2022-11-20T12:03:58;11.07;;;5.40;;
16304;SDS011;8261;47.678;-122.174;2022-11-20T12:06:34;8.10;;;5.10;;
16304;SDS011;8261;47.678;-122.174;2022-11-20T12:09:09;8.83;;;5.53;;
16304;SDS011;8261;47.678;-122.174;2022-11-20T12:11:45;9.33;;;5.30;;
16304;SDS011;8261;47.678;-122.174;2022-11-20T12:14:21;8.23;;;5.40;;
16304;SDS011;8261;47.678;-122.174;2022-11-20T12:16:56;6.43;;;4.70;;
16304;SDS011;8261;47.678;-122.174;2022-11-20T12:19:27;7.00;;;5.23;;
16304;SDS011;8261;47.678;-122.174;2022-11-20T12:22:02;8.13;;;5.33;;
16304;SDS011;8261;47.678;-122.174;2022-11-20T12:24:45;7.20;;;4.97;;
16304;SDS011;8261;47.678;-122.174;2022-11-20T12:27:32;7.57;;;5.00;;
16304;SDS011;8261;47.678;-122.174;2022-11-20T12:30:12;7.90;;;5.50;;
16304;SDS011;8261;47.678;-122.174;2022-11-20T12:35:56;8.67;;;4.60;;
16304;SDS011;8261;47.678;-122.174;2022-11-20T12:41:55;7.60;;;5.00;;
16304;SDS011;8261;47.678;-122.174;2022-11-20T12:45:01;7.80;;;5.13;;
16304;SDS011;8261;47.678;-122.174;2022-11-20T12:48:01;6.43;;;4.60;;
16304;SDS011;8261;47.678;-122.174;2022-11-20T12:50:51;6.53;;;4.57;;
16304;SDS011;8261;47.678;-122.174;2022-11-20T12:53:43;6.20;;;4.93;;
16304;SDS011;8261;47.678;-122.174;2022-11-20T12:56:27;7.57;;;4.40;;
16304;SDS011;8261;47.678;-122.174;2022-11-20T12:59:13;5.57;;;4.07;;
16304;SDS011;8261;47.678;-122.174;2022-11-20T13:01:58;5.27;;;4.00;;
16304;SDS011;8261;47.678;-122.174;2022-11-20T13:04:54;8.80;;;4.90;;
16304;SDS011;8261;47.678;-122.174;2022-11-20T13:07:37;6.90;;;4.90;;
16304;SDS011;8261;47.678;-122.174;2022-11-20T13:10:14;7.93;;;4.13;;
16304;SDS011;8261;47.678;-122.174;2022-11-20T13:12:51;6.20;;;4.70;;
16304;SDS011;8261;47.678;-122.174;2022-11-20T13:15:33;8.37;;;4.53;;
16304;SDS011;8261;47.678;-122.174;2022-11-20T13:18:17;6.60;;;4.57;;
16304;SDS011;8261;47.678;-122.174;2022-11-20T13:20:49;8.80;;;4.30;;
16304;SDS011;8261;47.678;-122.174;2022-11-20T13:23:24;8.10;;;5.13;;
16304;SDS011;8261;47.678;-122.174;2022-11-20T13:26:03;5.60;;;4.20;;
16304;SDS011;8261;47.678;-122.174;2022-11-20T13:28:35;7.40;;;4.60;;
16304;SDS011;8261;47.678;-122.174;2022-11-20T13:31:09;9.93;;;5.13;;
16304;SDS011;8261;47.678;-122.174;2022-11-20T13:34:05;8.50;;;4.80;;
16304;SDS011;8261;47.678;-122.174;2022-11-20T13:36:48;7.70;;;4.57;;
16304;SDS011;8261;47.678;-122.174;2022-11-20T13:39:24;9.10;;;5.27;;
16304;SDS011;8261;47.678;-122.174;2022-11-20T13:41:56;6.97;;;4.77;;
16304;SDS011;8261;47.678;-122.174;2022-11-20T13:44:31;7.40;;;4.70;;
16304;SDS011;8261;47.678;-122.174;2022-11-20T13:47:17;7.60;;;4.87;;
16304;SDS011;8261;47.678;-122.174;2022-11-20T13:49:54;9.37;;;5.03;;
16304;SDS011;8261;47.678;-122.174;2022-11-20T13:52:30;7.63;;;4.70;;
16304;SDS011;8261;47.678;-122.174;2022-11-20T13:55:13;6.40;;;4.73;;
16304;SDS011;8261;47.678;-122.174;2022-11-20T13:58:04;7.17;;;4.90;;
16304;SDS011;8261;47.678;-122.174;2022-11-20T14:00:43;8.83;;;4.77;;
16304;SDS011;8261;47.678;-122.174;2022-11-20T14:03:19;7.50;;;5.13;;
16304;SDS011;8261;47.678;-122.174;2022-11-20T14:06:16;7.00;;;4.60;;
16304;SDS011;8261;47.678;-122.174;2022-11-20T14:08:55;6.77;;;5.00;;
16304;SDS011;8261;47.678;-122.174;2022-11-20T14:11:28;9.83;;;5.30;;
16304;SDS011;8261;47.678;-122.174;2022-11-20T14:14:02;7.00;;;5.00;;
16304;SDS011;8261;47.678;-122.174;2022-11-20T14:16:36;8.13;;;4.90;;
16304;SDS011;8261;47.678;-122.174;2022-11-20T14:19:25;8.73;;;5.53;;
16304;SDS011;8261;47.678;-122.174;2022-11-20T14:22:14;9.80;;;5.67;;
16304;SDS011;8261;47.678;-122.174;2022-11-20T14:24:48;8.70;;;5.37;;
16304;SDS011;8261;47.678;-122.174;2022-11-20T14:27:32;7.60;;;5.40;;
16304;SDS011;8261;47.678;-122.174;2022-11-20T14:30:10;8.23;;;4.93;;
16304;SDS011;8261;47.678;-122.174;2022-11-20T14:32:46;7.03;;;5.10;;
16304;SDS011;8261;47.678;-122.174;2022-11-20T14:35:19;7.57;;;5.23;;
16304;SDS011;8261;47.678;-122.174;2022-11-20T14:37:55;8.90;;;5.20;;
16304;SDS011;8261;47.678;-122.174;2022-11-20T14:40:28;7.07;;;5.07;;
16304;SDS011;8261;47.678;-122.174;2022-11-20T14:43:01;9.83;;;5.50;;
16304;SDS011;8261;47.678;-122.174;2022-11-20T14:45:47;7.47;;;5.27;;
16304;SDS011;8261;47.678;-122.174;2022-11-20T14:48:29;9.80;;;5.60;;
16304;SDS011;8261;47.678;-122.174;2022-11-20T14:51:02;8.73;;;5.40;;
16304;SDS011;8261;47.678;-122.174;2022-11-20T14:53:35;6.70;;;5.23;;
16304;SDS011;8261;47.678;-122.174;2022-11-20T14:56:07;8.33;;;5.40;;
16304;SDS011;8261;47.678;-122.174;2022-11-20T14:58:38;7.73;;;4.83;;
16304;SDS011;8261;47.678;-122.174;2022-11-20T15:01:12;7.17;;;4.70;;
16304;SDS011;8261;47.678;-122.174;2022-11-20T15:03:43;6.87;;;5.00;;
16304;SDS011;8261;47.678;-122.174;2022-11-20T15:06:14;7.60;;;5.07;;
16304;SDS011;8261;47.678;-122.174;2022-11-20T15:08:58;6.90;;;4.83;;
16304;SDS011;8261;47.678;-122.174;2022-11-20T15:11:31;7.47;;;4.87;;
16304;SDS011;8261;47.678;-122.174;2022-11-20T15:14:04;6.47;;;4.93;;
16304;SDS011;8261;47.678;-122.174;2022-11-20T15:16:39;7.13;;;4.80;;